createdAt,value
2019-05-07T00:05:18.971Z,8.4
2019-05-07T00:15:22.978Z,8.3
2019-05-07T00:25:26.538Z,8.1
2019-05-07T00:35:32.203Z,7.9
2019-05-07T00:45:35.907Z,7.8
2019-05-07T00:55:39.337Z,7.6
2019-05-07T01:05:43.286Z,7.7
2019-05-07T01:15:46.777Z,7.4
2019-05-07T01:25:52.293Z,7.3
2019-05-07T01:35:56.285Z,7.3
2019-05-07T01:45:59.710Z,7.1
2019-05-07T01:56:03.412Z,6.8
2019-05-07T02:06:06.946Z,6.8
2019-05-07T02:16:12.285Z,6.5
2019-05-07T02:26:15.894Z,6.5
2019-05-07T02:36:19.321Z,6.4
2019-05-07T02:46:30.708Z,6.4
2019-05-07T02:56:42.963Z,6.4
2019-05-07T03:06:47.005Z,6.4
2019-05-07T03:16:53.266Z,6.2
2019-05-07T03:26:57.479Z,6.2
2019-05-07T03:37:05.563Z,6.1
2019-05-07T03:47:10.266Z,6
2019-05-07T03:57:17.354Z,5.8
2019-05-07T04:07:23.192Z,5.8
2019-05-07T04:17:27.333Z,5.9
2019-05-07T04:27:33.196Z,5.9
2019-05-07T04:37:36.851Z,5.9
2019-05-07T04:47:43.848Z,6.2
2019-05-07T04:57:53.294Z,6.3
2019-05-07T05:07:56.988Z,6.1
2019-05-07T05:18:02.319Z,6.2
2019-05-07T05:28:06.222Z,6.5
2019-05-07T05:38:09.687Z,6.9
2019-05-07T05:48:15.813Z,7.3
2019-05-07T05:58:19.244Z,8.6
2019-05-07T06:08:23.969Z,9.2
2019-05-07T06:18:27.555Z,9.1
2019-05-07T06:28:32.961Z,9.5
2019-05-07T06:38:36.575Z,9.7
2019-05-07T06:48:43.277Z,10
2019-05-07T06:58:49.816Z,10.4
2019-05-07T07:08:55.843Z,10.9
2019-05-07T07:18:59.348Z,11.3
2019-05-07T07:29:02.782Z,11.2
2019-05-07T07:39:06.242Z,11.8
2019-05-07T07:49:12.123Z,12.1
2019-05-07T07:59:18.790Z,12.4
2019-05-07T08:09:25.445Z,12.8
2019-05-07T08:19:29.310Z,12.9
2019-05-07T08:29:32.862Z,13.5
2019-05-07T08:39:36.299Z,13.9
2019-05-07T08:49:40.915Z,13.6
2019-05-07T08:59:58.262Z,13.8
2019-05-07T09:10:08.116Z,14.2
2019-05-07T09:20:12.488Z,14.2
2019-05-07T09:30:16.149Z,14.2
2019-05-07T09:40:21.596Z,14.6
2019-05-07T09:50:25.155Z,14.5
2019-05-07T10:00:28.600Z,14.1
2019-05-07T10:10:32.870Z,14.1
2019-05-07T10:20:36.434Z,14.3
2019-05-07T10:30:39.887Z,14.2
2019-05-07T10:40:43.330Z,14.8
2019-05-07T10:50:46.747Z,14.6
2019-05-07T11:00:52.285Z,14.6
2019-05-07T11:10:55.805Z,15
2019-05-07T11:20:59.206Z,15.3
2019-05-07T11:31:02.665Z,15.8
2019-05-07T11:41:06.121Z,15.1
2019-05-07T11:51:09.566Z,15.1
2019-05-07T12:01:13.036Z,14.6
2019-05-07T12:11:16.502Z,15.5
2019-05-07T12:21:21.808Z,15.2
2019-05-07T12:31:27.787Z,15.7
2019-05-07T12:41:33.638Z,15.4
2019-05-07T12:51:38.129Z,15.7
2019-05-07T13:01:42.182Z,15.9
2019-05-07T13:11:45.730Z,15.3
2019-05-07T13:21:49.994Z,15.1
2019-05-07T13:31:54.157Z,15.5
2019-05-07T13:41:57.889Z,15.4
2019-05-07T13:52:03.747Z,15.6
2019-05-07T14:02:07.361Z,15.8
2019-05-07T14:12:12.270Z,16
2019-05-07T14:22:18.934Z,15.5
2019-05-07T14:32:22.791Z,15.6
2019-05-07T14:42:26.216Z,16
2019-05-07T14:52:33.017Z,16
2019-05-07T15:02:41.919Z,15.8
2019-05-07T15:12:45.732Z,15.8
2019-05-07T15:22:49.909Z,15.7
2019-05-07T15:32:56.125Z,15.6
2019-05-07T15:43:01.996Z,15.7
2019-05-07T15:53:05.712Z,15.7
2019-05-07T16:03:09.160Z,15.8
2019-05-07T16:13:15.374Z,15.9
2019-05-07T16:23:18.804Z,15.7
2019-05-07T16:33:22.251Z,15.6
2019-05-07T16:43:25.667Z,15.5
2019-05-07T16:53:30.171Z,15.5
2019-05-07T17:03:38.710Z,15.4
2019-05-07T17:13:42.476Z,15.5
2019-05-07T17:23:45.992Z,15.5
2019-05-07T17:33:51.549Z,15.4
2019-05-07T17:43:55.130Z,15.4
2019-05-07T17:54:00.196Z,15.2
2019-05-07T18:04:03.779Z,15
2019-05-07T18:14:07.251Z,14.9
2019-05-07T18:24:14.219Z,14.8
2019-05-07T18:34:20.329Z,14.9
2019-05-07T18:44:23.777Z,14.5
2019-05-07T18:54:31.108Z,14
2019-05-07T19:04:35.218Z,14.1
2019-05-07T19:14:38.665Z,14
2019-05-07T19:24:47.231Z,13.7
2019-05-07T19:34:53.364Z,12.9
2019-05-07T19:44:56.932Z,12.9
2019-05-07T19:55:02.358Z,13.4
2019-05-07T20:05:08.352Z,13.1
2019-05-07T20:15:11.793Z,12.7
2019-05-07T20:25:19.070Z,12.6
2019-05-07T20:35:22.918Z,12.6
2019-05-07T20:45:26.359Z,12.4
2019-05-07T20:55:31.421Z,13.1
2019-05-07T21:05:37.577Z,13.2
2019-05-07T21:15:41.845Z,13.1
2019-05-07T21:25:45.994Z,13
2019-05-07T21:35:52.010Z,13
2019-05-07T21:45:55.961Z,12.7
2019-05-07T21:56:02.406Z,12.8
2019-05-07T22:06:09.742Z,12.8
2019-05-07T22:16:16.314Z,12.6
2019-05-07T22:26:23.100Z,12.6
2019-05-07T22:36:32.451Z,12.6
2019-05-07T22:46:36.191Z,12.4
2019-05-07T22:56:41.872Z,12.3
2019-05-07T23:06:45.474Z,12.2
2019-05-07T23:16:48.899Z,12.1
2019-05-07T23:26:53.568Z,11.9
2019-05-07T23:36:57.369Z,11.8
2019-05-07T23:47:02.721Z,11.7
2019-05-07T23:57:09.603Z,11.7
